Terminal Aerodrome Forecast
Issued by NWS

Home | Current Version | Previous Version | Text Only | Print | Product List | Glossary On
Versions: 1 2 3 4 5 6 7 8 9 10 11 12 13 14 15 16
000
FTUS41 KPHI 262321
TAFPNE
TAF
KPNE 262321Z 2700/2724 17008KT P6SM SCT025 OVC045
     FM270500 22008KT 6SM -SHRA FEW008 OVC015
      TEMPO 2707/2711 27010KT 3SM SHRA OVC008
     FM271300 28008KT P6SM VCSH SCT020 OVC035
     FM271600 25008KT P6SM SCT040 BKN150
     FM271900 22005KT P6SM FEW050 BKN200=

USA.gov is the U.S. government's official web portal to all federal, state and local government web resources and services.